createdAt,value
2023-04-02T00:00:38.423Z,15.20
2023-04-02T00:03:10.305Z,17.40
2023-04-02T00:05:51.437Z,17.00
2023-04-02T00:08:26.654Z,17.10
2023-04-02T00:10:54.780Z,16.40
2023-04-02T00:13:33.604Z,15.70
2023-04-02T00:16:03.624Z,17.10
2023-04-02T00:18:34.709Z,16.00
2023-04-02T00:21:11.026Z,17.20
2023-04-02T00:23:40.244Z,17.30
2023-04-02T00:26:36.840Z,17.10
2023-04-02T00:29:05.876Z,16.40
2023-04-02T00:31:38.297Z,16.60
2023-04-02T00:34:07.805Z,16.00
2023-04-02T00:36:35.883Z,15.90
2023-04-02T00:39:08.755Z,17.20
2023-04-02T00:41:38.958Z,15.40
2023-04-02T00:44:12.425Z,16.90
2023-04-02T00:46:49.683Z,15.20
2023-04-02T00:49:37.180Z,16.80
2023-04-02T00:52:27.341Z,18.10
2023-04-02T00:55:15.875Z,17.60
2023-04-02T00:57:45.262Z,16.70
2023-04-02T01:00:40.484Z,17.30
2023-04-02T01:03:18.319Z,16.10
2023-04-02T01:05:48.472Z,17.10
2023-04-02T01:10:59.659Z,16.50
2023-04-02T01:13:34.282Z,15.90
2023-04-02T01:16:17.408Z,17.00
2023-04-02T01:19:02.288Z,17.40
2023-04-02T01:22:31.157Z,18.20
2023-04-02T01:24:59.509Z,15.80
2023-04-02T01:27:30.225Z,17.00
2023-04-02T01:29:59.139Z,16.70
2023-04-02T01:32:28.818Z,16.60
2023-04-02T01:34:56.897Z,16.30
2023-04-02T01:37:40.309Z,17.80
2023-04-02T01:40:32.606Z,18.50
2023-04-02T01:43:10.481Z,16.70
2023-04-02T01:45:38.601Z,17.20
2023-04-02T01:48:20.096Z,17.40
2023-04-02T01:50:49.933Z,16.10
2023-04-02T01:53:19.006Z,16.20
2023-04-02T01:55:54.423Z,18.30
2023-04-02T01:58:25.712Z,19.60
2023-04-02T02:01:02.372Z,17.00
2023-04-02T02:03:32.357Z,17.80
2023-04-02T02:06:02.127Z,17.00
2023-04-02T02:08:52.164Z,17.00
2023-04-02T02:11:22.862Z,18.40
2023-04-02T02:13:54.647Z,18.00
2023-04-02T02:16:24.094Z,17.70
2023-04-02T02:18:53.936Z,16.10
2023-04-02T02:21:38.892Z,19.70
2023-04-02T02:24:10.752Z,19.10
2023-04-02T02:26:38.907Z,17.10
2023-04-02T02:29:07.236Z,19.20
2023-04-02T02:31:35.593Z,18.00
2023-04-02T02:34:07.445Z,18.80
2023-04-02T02:36:45.595Z,19.20
2023-04-02T02:39:20.836Z,19.40
2023-04-02T02:41:51.678Z,17.60
2023-04-02T02:46:57.420Z,18.50
2023-04-02T02:49:36.600Z,18.80
2023-04-02T02:52:17.482Z,17.90
2023-04-02T02:54:58.791Z,18.00
2023-04-02T02:57:39.209Z,20.10
2023-04-02T03:00:10.038Z,19.90
2023-04-02T03:02:40.275Z,20.30
2023-04-02T03:05:09.410Z,20.40
2023-04-02T03:07:38.440Z,19.50
2023-04-02T03:10:13.304Z,20.60
2023-04-02T03:13:14.777Z,20.70
2023-04-02T03:15:58.799Z,19.70
2023-04-02T03:18:37.158Z,19.70
2023-04-02T03:21:13.978Z,20.00
2023-04-02T03:24:18.964Z,20.20
2023-04-02T03:27:01.448Z,18.00
2023-04-02T03:29:31.531Z,20.30
2023-04-02T03:32:35.086Z,20.60
2023-04-02T03:35:27.337Z,21.10
2023-04-02T03:37:59.343Z,20.30
2023-04-02T03:40:46.702Z,18.00
2023-04-02T03:43:20.653Z,19.90
2023-04-02T03:45:51.968Z,20.90
2023-04-02T03:48:39.326Z,19.00
2023-04-02T03:51:21.008Z,20.50
2023-04-02T03:53:50.053Z,20.70
2023-04-02T03:56:31.845Z,20.50
2023-04-02T03:59:25.732Z,20.70
2023-04-02T04:02:02.078Z,21.80
2023-04-02T04:04:31.896Z,19.20
2023-04-02T04:07:00.348Z,20.40
2023-04-02T04:09:34.100Z,19.30
2023-04-02T04:12:31.555Z,22.90
2023-04-02T04:15:24.794Z,21.10
2023-04-02T04:18:19.351Z,21.50
2023-04-02T04:20:56.635Z,21.60
2023-04-02T04:23:30.763Z,22.30
2023-04-02T04:26:05.661Z,19.40
2023-04-02T04:28:59.056Z,21.50
2023-04-02T04:31:34.133Z,22.30
2023-04-02T04:34:12.968Z,23.50
2023-04-02T04:36:48.061Z,21.80
2023-04-02T04:39:21.653Z,22.80
2023-04-02T04:41:50.687Z,22.40
2023-04-02T04:44:24.213Z,22.80
2023-04-02T04:47:02.797Z,20.50
2023-04-02T04:49:55.988Z,21.70
2023-04-02T04:52:36.400Z,22.50
2023-04-02T04:55:35.625Z,19.40
2023-04-02T04:58:46.768Z,18.50
2023-04-02T05:01:38.073Z,17.80
2023-04-02T05:04:48.969Z,17.20
2023-04-02T05:07:20.446Z,17.20
2023-04-02T05:09:58.745Z,18.70
2023-04-02T05:12:46.114Z,19.60
2023-04-02T05:15:18.507Z,18.60
2023-04-02T05:18:28.810Z,21.20
2023-04-02T05:21:08.929Z,19.20
2023-04-02T05:24:20.360Z,21.30
2023-04-02T05:26:48.446Z,20.40
2023-04-02T05:29:22.549Z,21.00
2023-04-02T05:32:09.465Z,20.80
2023-04-02T05:34:38.739Z,19.70
2023-04-02T05:37:22.540Z,21.50
2023-04-02T05:39:54.582Z,20.00
2023-04-02T05:42:25.776Z,19.80
2023-04-02T05:45:20.855Z,20.00
2023-04-02T05:47:50.350Z,19.70
2023-04-02T05:50:26.256Z,20.40
2023-04-02T05:53:02.667Z,20.00
2023-04-02T05:55:41.048Z,20.70
2023-04-02T06:01:15.472Z,15.30
2023-04-02T06:04:26.259Z,18.70
2023-04-02T06:07:02.112Z,17.50
2023-04-02T06:09:39.562Z,16.60
2023-04-02T06:12:58.404Z,17.80
2023-04-02T06:15:28.005Z,16.30
2023-04-02T06:18:06.272Z,16.40
2023-04-02T06:20:36.116Z,16.20
2023-04-02T06:23:07.645Z,15.90
2023-04-02T06:25:59.497Z,15.00
2023-04-02T06:28:33.356Z,15.40
2023-04-02T06:31:06.137Z,15.10
2023-04-02T06:33:37.833Z,14.30
2023-04-02T06:36:06.613Z,15.40
2023-04-02T06:38:38.632Z,14.40
2023-04-02T06:41:15.597Z,15.10
2023-04-02T06:44:01.330Z,15.40
2023-04-02T06:47:42.533Z,14.10
2023-04-02T06:50:26.808Z,14.00
2023-04-02T06:53:00.159Z,15.30
2023-04-02T06:55:38.299Z,16.20
2023-04-02T06:58:06.997Z,15.40
2023-04-02T07:00:38.496Z,15.80
2023-04-02T07:03:32.385Z,15.90
2023-04-02T07:06:12.060Z,16.00
2023-04-02T07:08:41.282Z,14.90
2023-04-02T07:11:21.743Z,15.70
2023-04-02T07:13:51.843Z,13.90
2023-04-02T07:16:23.753Z,15.20
2023-04-02T07:18:53.087Z,16.40
2023-04-02T07:21:22.816Z,16.30
2023-04-02T07:23:51.514Z,16.80
2023-04-02T07:26:22.897Z,17.30
2023-04-02T07:28:51.643Z,16.60
2023-04-02T07:31:24.568Z,16.50
2023-04-02T07:33:55.164Z,17.70
2023-04-02T07:36:23.839Z,17.50
2023-04-02T07:38:52.249Z,17.10
2023-04-02T07:41:21.109Z,17.00
2023-04-02T07:43:49.596Z,18.00
2023-04-02T07:46:19.359Z,16.20
2023-04-02T07:48:47.670Z,19.20
2023-04-02T07:51:20.037Z,16.90
2023-04-02T07:53:50.532Z,17.80
2023-04-02T07:56:20.734Z,17.00
2023-04-02T07:58:49.231Z,16.50
2023-04-02T08:01:26.706Z,18.30
2023-04-02T08:03:57.596Z,17.90
2023-04-02T08:06:26.372Z,15.20
2023-04-02T08:08:54.788Z,16.10
2023-04-02T08:11:22.920Z,16.20
2023-04-02T08:13:54.422Z,17.60
2023-04-02T08:16:23.992Z,15.50
2023-04-02T08:18:52.241Z,13.30
2023-04-02T08:21:20.634Z,14.80
2023-04-02T08:23:48.648Z,14.90
2023-04-02T08:26:18.536Z,14.90
2023-04-02T08:28:46.810Z,14.00
2023-04-02T08:31:17.346Z,13.40
2023-04-02T08:33:46.141Z,13.40
2023-04-02T08:36:17.066Z,14.20
2023-04-02T08:38:45.777Z,13.60
2023-04-02T08:41:22.703Z,15.20
2023-04-02T08:44:09.122Z,16.10
2023-04-02T08:46:55.106Z,15.80
2023-04-02T08:49:31.195Z,15.90
2023-04-02T08:52:02.884Z,16.40
2023-04-02T08:54:38.081Z,16.20
2023-04-02T08:57:32.696Z,15.70
2023-04-02T09:00:11.600Z,16.50
2023-04-02T09:02:49.624Z,15.30
2023-04-02T09:05:21.880Z,15.70
2023-04-02T09:07:52.613Z,15.10
2023-04-02T09:10:21.150Z,15.60
2023-04-02T09:15:34.429Z,13.60
2023-04-02T09:18:13.664Z,15.20
2023-04-02T09:20:50.318Z,16.00
2023-04-02T09:23:22.274Z,14.40
2023-04-02T09:26:03.510Z,15.20
2023-04-02T09:28:32.238Z,16.60
2023-04-02T09:31:07.169Z,16.10
2023-04-02T09:33:44.129Z,16.50
2023-04-02T09:36:39.464Z,14.90
2023-04-02T09:39:14.075Z,14.80
2023-04-02T09:41:43.741Z,14.40
2023-04-02T09:44:25.323Z,15.40
2023-04-02T09:46:56.355Z,14.00
2023-04-02T09:49:26.214Z,16.10
2023-04-02T09:52:31.836Z,14.80
2023-04-02T09:55:15.661Z,16.00
2023-04-02T09:57:44.807Z,16.90
2023-04-02T10:00:30.695Z,16.40
2023-04-02T10:03:26.880Z,16.00
2023-04-02T10:06:24.376Z,15.60
2023-04-02T10:11:46.285Z,17.10
2023-04-02T10:14:29.394Z,22.30
2023-04-02T10:17:01.465Z,25.20
2023-04-02T10:19:33.221Z,26.60
2023-04-02T10:22:05.058Z,22.80
2023-04-02T10:24:36.103Z,23.30
2023-04-02T10:27:42.780Z,23.70
2023-04-02T10:30:29.136Z,24.80
2023-04-02T10:33:02.000Z,22.90
2023-04-02T10:35:51.758Z,22.20
2023-04-02T10:38:39.079Z,23.10
2023-04-02T10:41:20.126Z,23.20
2023-04-02T10:44:19.038Z,23.30
2023-04-02T10:47:04.525Z,24.40
2023-04-02T10:49:43.430Z,24.30
2023-04-02T10:52:24.340Z,26.10
2023-04-02T10:54:57.283Z,26.50
2023-04-02T10:57:45.064Z,27.50
2023-04-02T11:00:25.741Z,24.80
2023-04-02T11:03:57.826Z,24.00
2023-04-02T11:06:39.405Z,23.20
2023-04-02T11:09:07.895Z,23.30
2023-04-02T11:11:41.807Z,23.50
2023-04-02T11:14:18.101Z,22.40
2023-04-02T11:16:51.905Z,22.20
2023-04-02T11:19:33.479Z,23.90
2023-04-02T11:22:06.753Z,22.20
2023-04-02T11:24:38.138Z,21.30
2023-04-02T11:27:14.520Z,19.80
2023-04-02T11:30:02.850Z,19.70
2023-04-02T11:32:43.882Z,19.40
2023-04-02T11:35:31.464Z,19.20
2023-04-02T11:38:04.393Z,20.50
2023-04-02T11:40:45.239Z,21.00
2023-04-02T11:43:38.527Z,25.40
2023-04-02T11:46:32.243Z,21.90
2023-04-02T11:49:39.899Z,22.30
2023-04-02T11:52:46.660Z,21.10
2023-04-02T11:55:14.926Z,19.60
2023-04-02T11:57:49.397Z,19.30
2023-04-02T12:00:26.558Z,19.00
2023-04-02T12:03:20.291Z,19.10
2023-04-02T12:05:54.799Z,20.90
2023-04-02T12:08:50.642Z,18.40
2023-04-02T12:11:33.649Z,18.40
2023-04-02T12:14:22.099Z,17.00
2023-04-02T12:16:50.803Z,17.50
2023-04-02T12:19:19.409Z,15.80
2023-04-02T12:21:47.708Z,12.90
2023-04-02T12:24:19.594Z,9.50
2023-04-02T12:26:47.978Z,9.90
2023-04-02T12:29:18.931Z,9.30
2023-04-02T12:31:47.958Z,10.10
2023-04-02T12:34:18.219Z,8.60
2023-04-02T12:36:59.712Z,6.40
2023-04-02T12:39:28.464Z,5.10
2023-04-02T12:41:57.472Z,6.00
2023-04-02T12:44:29.632Z,5.70
2023-04-02T12:47:02.200Z,5.60
2023-04-02T12:49:40.484Z,6.50
2023-04-02T12:52:12.650Z,5.30
2023-04-02T12:54:54.253Z,5.10
2023-04-02T12:57:25.509Z,5.70
2023-04-02T13:00:21.110Z,6.30
2023-04-02T13:03:03.415Z,5.80
2023-04-02T13:05:43.620Z,6.20
2023-04-02T13:10:47.322Z,8.30
2023-04-02T13:13:24.875Z,8.90
2023-04-02T13:16:24.949Z,9.00
2023-04-02T13:19:17.096Z,8.80
2023-04-02T13:21:46.058Z,9.60
2023-04-02T13:24:19.368Z,10.50
2023-04-02T13:26:50.988Z,9.30
2023-04-02T13:29:22.175Z,10.80
2023-04-02T13:31:51.250Z,10.70
2023-04-02T13:34:19.357Z,12.60
2023-04-02T13:36:48.317Z,12.90
2023-04-02T13:39:16.665Z,14.20
2023-04-02T13:41:46.472Z,12.90
2023-04-02T13:46:49.810Z,15.20
2023-04-02T13:49:18.549Z,15.20
2023-04-02T13:51:51.713Z,14.30
2023-04-02T13:54:24.299Z,14.40
2023-04-02T13:56:52.956Z,14.00
2023-04-02T13:59:21.163Z,14.30
2023-04-02T14:01:51.713Z,15.70
2023-04-02T14:04:26.623Z,17.70
2023-04-02T14:07:09.949Z,16.40
2023-04-02T14:10:01.997Z,16.40
2023-04-02T14:12:36.706Z,17.10
2023-04-02T14:15:11.290Z,15.40
2023-04-02T14:17:47.823Z,15.80
2023-04-02T14:20:17.140Z,16.10
2023-04-02T14:23:20.969Z,14.00
2023-04-02T14:26:05.943Z,15.70
2023-04-02T14:28:44.866Z,15.30
2023-04-02T14:31:25.753Z,15.80
2023-04-02T14:34:09.547Z,14.40
2023-04-02T14:36:57.723Z,16.20
2023-04-02T14:39:41.001Z,16.30
2023-04-02T14:42:21.793Z,16.90
2023-04-02T14:44:53.257Z,17.80
2023-04-02T14:47:24.750Z,18.80
2023-04-02T14:49:55.496Z,19.70
2023-04-02T14:52:24.028Z,21.20
2023-04-02T14:55:12.556Z,20.40
2023-04-02T14:57:44.739Z,21.70
2023-04-02T15:00:31.843Z,21.80
2023-04-02T15:03:24.463Z,22.60
2023-04-02T15:06:03.680Z,23.30
2023-04-02T15:08:37.202Z,24.70
2023-04-02T15:11:28.891Z,25.40
2023-04-02T15:14:00.653Z,26.60
2023-04-02T15:16:37.470Z,27.60
2023-04-02T15:19:11.733Z,27.20
2023-04-02T15:22:09.311Z,30.80
2023-04-02T15:24:44.044Z,31.80
2023-04-02T15:27:22.208Z,31.50
2023-04-02T15:30:13.061Z,34.40
2023-04-02T15:32:42.793Z,31.30
2023-04-02T15:35:23.072Z,32.50
2023-04-02T15:41:01.345Z,31.10
2023-04-02T15:43:38.463Z,31.30
2023-04-02T15:46:06.580Z,32.70
2023-04-02T15:48:50.090Z,33.00
2023-04-02T15:51:24.831Z,32.20
2023-04-02T15:54:00.545Z,30.90
2023-04-02T15:56:36.813Z,32.20
2023-04-02T15:59:26.088Z,31.20
2023-04-02T16:02:26.160Z,30.30
2023-04-02T16:05:22.631Z,31.10
2023-04-02T16:07:54.612Z,31.10
2023-04-02T16:10:40.188Z,34.70
2023-04-02T16:13:27.050Z,33.00
2023-04-02T16:16:20.116Z,54.50
2023-04-02T16:19:06.073Z,31.30
2023-04-02T16:22:06.362Z,31.10
2023-04-02T16:24:37.597Z,33.10
2023-04-02T16:27:14.898Z,37.00
2023-04-02T16:30:01.307Z,34.20
2023-04-02T16:32:45.447Z,32.80
2023-04-02T16:35:43.311Z,32.90
2023-04-02T16:38:15.716Z,33.40
2023-04-02T16:41:08.306Z,31.30
2023-04-02T16:44:15.594Z,33.30
2023-04-02T16:47:11.194Z,32.00
2023-04-02T16:49:48.168Z,32.50
2023-04-02T16:52:31.888Z,32.60
2023-04-02T16:55:24.752Z,32.60
2023-04-02T16:58:14.256Z,34.20
2023-04-02T17:01:03.316Z,33.80
2023-04-02T17:03:32.124Z,37.40
2023-04-02T17:06:09.106Z,38.80
2023-04-02T17:08:43.792Z,40.90
2023-04-02T17:11:26.104Z,40.80
2023-04-02T17:14:06.394Z,41.20
2023-04-02T17:16:41.811Z,37.30
2023-04-02T17:19:11.620Z,33.20
2023-04-02T17:21:47.547Z,32.20
2023-04-02T17:24:35.922Z,30.60
2023-04-02T17:27:23.671Z,28.70
2023-04-02T17:29:53.377Z,26.80
2023-04-02T17:32:27.650Z,25.00
2023-04-02T17:34:56.918Z,26.10
2023-04-02T17:37:35.236Z,26.80
2023-04-02T17:40:48.284Z,24.90
2023-04-02T17:43:33.014Z,20.70
2023-04-02T17:46:17.926Z,17.60
2023-04-02T17:48:48.125Z,16.20
2023-04-02T17:51:21.917Z,15.40
2023-04-02T17:53:59.817Z,15.10
2023-04-02T17:56:31.388Z,16.10
2023-04-02T17:59:21.909Z,15.00
2023-04-02T18:01:53.331Z,15.30
2023-04-02T18:05:15.594Z,15.20
2023-04-02T18:08:18.750Z,13.90
2023-04-02T18:11:10.085Z,13.00
2023-04-02T18:13:42.488Z,12.80
2023-04-02T18:16:16.483Z,12.70
2023-04-02T18:19:03.712Z,13.40
2023-04-02T18:22:04.948Z,13.90
2023-04-02T18:24:48.181Z,14.30
2023-04-02T18:27:25.758Z,15.50
2023-04-02T18:30:00.406Z,16.60
2023-04-02T18:32:34.503Z,14.50
2023-04-02T18:35:23.841Z,13.60
2023-04-02T18:38:03.626Z,14.30
2023-04-02T18:41:00.703Z,13.10
2023-04-02T18:43:38.399Z,12.20
2023-04-02T18:46:22.432Z,13.10
2023-04-02T18:49:21.885Z,12.50
2023-04-02T18:51:52.500Z,13.80
2023-04-02T18:54:23.983Z,12.70
2023-04-02T18:56:52.111Z,11.30
2023-04-02T18:59:42.804Z,12.90
2023-04-02T19:02:29.817Z,13.30
2023-04-02T19:05:27.719Z,13.80
2023-04-02T19:08:24.210Z,15.00
2023-04-02T19:10:54.866Z,12.60
2023-04-02T19:13:23.238Z,13.00
2023-04-02T19:15:59.366Z,16.60
2023-04-02T19:18:40.089Z,12.50
2023-04-02T19:21:26.164Z,12.40
2023-04-02T19:24:19.565Z,14.60
2023-04-02T19:27:17.202Z,10.60
2023-04-02T19:30:08.231Z,11.40
2023-04-02T19:32:56.047Z,11.30
2023-04-02T19:35:27.738Z,13.10
2023-04-02T19:38:19.837Z,15.90
2023-04-02T19:41:12.823Z,12.40
2023-04-02T19:43:42.407Z,14.00
2023-04-02T19:46:11.314Z,12.40
2023-04-02T19:48:43.691Z,12.20
2023-04-02T19:51:12.100Z,11.80
2023-04-02T19:53:40.150Z,11.00
2023-04-02T19:56:08.395Z,10.40
2023-04-02T19:58:37.017Z,11.30
2023-04-02T20:01:06.746Z,10.90
2023-04-02T20:03:35.625Z,12.50
2023-04-02T20:06:04.023Z,11.30
2023-04-02T20:08:36.497Z,10.60
2023-04-02T20:11:08.585Z,12.70
2023-04-02T20:13:39.902Z,12.90
2023-04-02T20:16:08.664Z,12.80
2023-04-02T20:18:37.641Z,12.00
2023-04-02T20:21:10.497Z,12.40
2023-04-02T20:23:38.929Z,12.20
2023-04-02T20:26:07.235Z,14.10
2023-04-02T20:28:35.506Z,12.70
2023-04-02T20:31:11.905Z,12.50
2023-04-02T20:33:40.261Z,12.20
2023-04-02T20:36:11.744Z,11.10
2023-04-02T20:38:40.595Z,11.10
2023-04-02T20:41:08.882Z,10.60
2023-04-02T20:43:37.624Z,10.90
2023-04-02T20:46:06.666Z,11.60
2023-04-02T20:48:36.446Z,11.40
2023-04-02T20:51:07.421Z,12.20
2023-04-02T20:53:36.997Z,11.80
2023-04-02T20:56:09.023Z,10.90
2023-04-02T20:58:38.360Z,13.40
2023-04-02T21:01:07.438Z,11.40
2023-04-02T21:03:39.872Z,12.00
2023-04-02T21:06:13.468Z,13.70
2023-04-02T21:08:41.577Z,13.30
2023-04-02T21:11:16.651Z,13.60
2023-04-02T21:13:45.500Z,13.00
2023-04-02T21:16:20.887Z,13.70
2023-04-02T21:18:52.954Z,11.30
2023-04-02T21:21:21.232Z,12.20
2023-04-02T21:23:56.292Z,11.50
2023-04-02T21:26:24.440Z,12.20
2023-04-02T21:28:55.785Z,11.20
2023-04-02T21:31:26.241Z,11.30
2023-04-02T21:33:57.130Z,11.70
2023-04-02T21:36:28.896Z,10.10
2023-04-02T21:38:59.066Z,11.20
2023-04-02T21:41:31.801Z,10.80
2023-04-02T21:44:00.882Z,10.50
2023-04-02T21:46:30.695Z,10.50
2023-04-02T21:51:29.803Z,10.10
2023-04-02T21:54:02.088Z,10.60
2023-04-02T21:56:32.450Z,10.90
2023-04-02T22:01:32.148Z,10.80
2023-04-02T22:04:01.711Z,11.50
2023-04-02T22:06:31.748Z,12.90
2023-04-02T22:09:01.444Z,13.30
2023-04-02T22:11:33.967Z,15.60
2023-04-02T22:14:03.637Z,17.90
2023-04-02T22:16:33.119Z,17.80
2023-04-02T22:19:06.791Z,18.90
2023-04-02T22:21:35.787Z,19.30
2023-04-02T22:24:07.381Z,17.50
2023-04-02T22:26:36.609Z,19.10
2023-04-02T22:29:04.869Z,20.60
2023-04-02T22:31:33.541Z,28.60
2023-04-02T22:34:02.942Z,37.30
2023-04-02T22:36:31.226Z,27.30
2023-04-02T22:39:01.239Z,22.70
2023-04-02T22:41:29.899Z,23.90
2023-04-02T22:43:58.625Z,31.00
2023-04-02T22:46:27.563Z,42.60
2023-04-02T22:48:58.900Z,36.60
2023-04-02T22:51:29.026Z,46.20
2023-04-02T22:53:57.469Z,41.10
2023-04-02T22:56:32.040Z,34.90
2023-04-02T22:59:00.956Z,24.00
2023-04-02T23:01:33.049Z,26.50
2023-04-02T23:04:01.591Z,24.70
2023-04-02T23:06:30.485Z,21.50
2023-04-02T23:08:59.026Z,20.00
2023-04-02T23:11:30.380Z,21.60
2023-04-02T23:14:02.032Z,22.50
2023-04-02T23:16:30.555Z,18.60
2023-04-02T23:21:29.593Z,17.60
2023-04-02T23:23:57.744Z,19.80
2023-04-02T23:26:29.650Z,18.10
2023-04-02T23:28:59.116Z,17.40
2023-04-02T23:31:28.022Z,16.90
2023-04-02T23:33:56.783Z,15.90
2023-04-02T23:36:29.771Z,15.80
2023-04-02T23:39:01.603Z,15.70
2023-04-02T23:41:30.570Z,15.80
2023-04-02T23:43:58.796Z,16.00
2023-04-02T23:46:27.252Z,15.80
2023-04-02T23:48:56.335Z,16.60
2023-04-02T23:51:24.686Z,17.30
2023-04-02T23:53:52.988Z,19.50
2023-04-02T23:56:21.878Z,23.20
2023-04-02T23:58:50.450Z,25.10
